UIUU 210230Z 36007MPS 9999 FEW050 21/07 Q1011 R26/60D NOSIG RMK QFE714/0953
QNH:(hPa/inHg/mmHg)1011 / 29.85 / 758
QFE:(hPa/inHg/mmHg)948 / 28.00 / 711
Temperature21
Dew Point7
Visibility> 10000
Weather
Cloud CoverFEW (5000);
Transition Height1800 m./7700 ft.
Transition LevelFL100
SQUAWK